Time;durP1;ratioP1;P1;durP2;ratioP2;P2;SDS_P1;SDS_P2;PMS_P1;PMS_P2;Temp;Humidity;BMP_temperature;BMP_pressure;BME280_temperature;BME280_humidity;BME280_pressure;Samples;Min_cycle;Max_cycle;Signal;HPM_P1;HPM_P2
2022/10/10 00:00:05;;;;;;;14.55;10.02;;;;;;;;;;4882532;29;20029;-77
2022/10/10 00:02:32;;;;;;;14.35;9.57;;;;;;;;;;4891578;29;20439;-77
2022/10/10 00:04:58;;;;;;;17.13;9.73;;;;;;;;;;4880743;29;20029;-76
2022/10/10 00:07:24;;;;;;;16.23;11.13;;;;;;;;;;4883510;29;20057;-75
2022/10/10 00:09:50;;;;;;;19.10;11.73;;;;;;;;;;4884537;29;20498;-76
2022/10/10 00:12:16;;;;;;;17.13;10.98;;;;;;;;;;4892705;29;20480;-76
2022/10/10 00:14:42;;;;;;;17.75;12.30;;;;;;;;;;4888134;29;20109;-77
2022/10/10 00:17:08;;;;;;;23.08;13.13;;;;;;;;;;4883450;29;20045;-75
2022/10/10 00:19:34;;;;;;;18.92;12.05;;;;;;;;;;4889055;29;20025;-77
2022/10/10 00:22:00;;;;;;;20.83;12.93;;;;;;;;;;4882327;29;20029;-76
2022/10/10 00:24:26;;;;;;;21.83;12.80;;;;;;;;;;4887253;29;20506;-76
2022/10/10 00:26:52;;;;;;;19.65;12.20;;;;;;;;;;4895621;29;20107;-76
2022/10/10 00:29:18;;;;;;;18.00;13.00;;;;;;;;;;4883303;29;20040;-76
2022/10/10 00:31:44;;;;;;;18.90;12.18;;;;;;;;;;4882088;29;20409;-76
2022/10/10 00:34:11;;;;;;;22.83;13.18;;;;;;;;;;4882612;29;20056;-76
2022/10/10 00:36:37;;;;;;;19.35;12.35;;;;;;;;;;4886049;29;20020;-77
2022/10/10 00:39:03;;;;;;;19.90;13.18;;;;;;;;;;4898892;29;20115;-75
2022/10/10 00:41:29;;;;;;;22.55;13.20;;;;;;;;;;4884950;29;20058;-76
2022/10/10 00:44:03;;;;;;;21.83;13.05;;;;;;;;;;4882118;29;20028;-77
2022/10/10 00:46:29;;;;;;;19.83;12.15;;;;;;;;;;4881129;29;20029;-75
2022/10/10 00:48:55;;;;;;;21.77;13.20;;;;;;;;;;4881493;29;20041;-76
2022/10/10 00:51:21;;;;;;;20.70;12.68;;;;;;;;;;4893402;29;20486;-75
2022/10/10 00:53:50;;;;;;;19.83;13.05;;;;;;;;;;4881592;29;20052;-75
2022/10/10 00:56:18;;;;;;;21.90;13.68;;;;;;;;;;4891252;29;20044;-76
2022/10/10 00:58:48;;;;;;;21.27;14.13;;;;;;;;;;4889852;29;20033;-76
2022/10/10 01:01:14;;;;;;;20.92;14.70;;;;;;;;;;4882658;29;20033;-76
2022/10/10 01:03:40;;;;;;;20.63;13.32;;;;;;;;;;4888918;29;20360;-75
2022/10/10 01:06:06;;;;;;;21.98;13.13;;;;;;;;;;4883425;29;20029;-76
2022/10/10 01:08:32;;;;;;;24.52;14.23;;;;;;;;;;4880648;29;20028;-76
2022/10/10 01:11:04;;;;;;;22.38;13.30;;;;;;;;;;4888963;29;20021;-76
2022/10/10 01:13:49;;;;;;;18.77;13.00;;;;;;;;;;4885708;29;20029;-76
2022/10/10 01:16:24;;;;;;;19.83;13.10;;;;;;;;;;4884358;29;20363;-76
2022/10/10 01:18:50;;;;;;;20.83;13.27;;;;;;;;;;4883663;29;20040;-76
2022/10/10 01:21:19;;;;;;;17.35;11.73;;;;;;;;;;4882630;29;20025;-76
2022/10/10 01:24:14;;;;;;;17.05;12.38;;;;;;;;;;4893394;29;20044;-76
2022/10/10 01:26:39;;;;;;;;;;;;;;;;;;4899175;29;20041;-76
2022/10/10 01:29:36;;;;;;;18.77;12.13;;;;;;;;;;4880653;29;19928;-76
2022/10/10 01:32:11;;;;;;;19.83;12.63;;;;;;;;;;4880762;29;20037;-76
2022/10/10 01:35:00;;;;;;;18.20;12.73;;;;;;;;;;4891812;29;20139;-75
2022/10/10 01:37:36;;;;;;;16.20;12.60;;;;;;;;;;4881267;29;20032;-76
2022/10/10 01:40:11;;;;;;;14.45;11.48;;;;;;;;;;4883189;29;20033;-75
2022/10/10 01:42:48;;;;;;;18.45;12.40;;;;;;;;;;4881841;29;20032;-77
2022/10/10 01:45:14;;;;;;;17.33;12.05;;;;;;;;;;4880310;29;20040;-77
2022/10/10 01:47:40;;;;;;;15.23;11.32;;;;;;;;;;4879986;29;20103;-76
2022/10/10 01:50:10;;;;;;;16.58;11.60;;;;;;;;;;4893995;29;20041;-76
2022/10/10 01:52:51;;;;;;;17.67;12.02;;;;;;;;;;4896759;29;20073;-75
2022/10/10 01:55:25;;;;;;;16.33;11.30;;;;;;;;;;4879990;29;20029;-77
2022/10/10 01:58:01;;;;;;;18.70;12.15;;;;;;;;;;4879304;29;20029;-76
2022/10/10 02:00:30;;;;;;;15.52;11.35;;;;;;;;;;4897215;29;20032;-77
2022/10/10 02:03:12;;;;;;;19.80;10.93;;;;;;;;;;4886276;29;20025;-77
2022/10/10 02:05:53;;;;;;;16.95;10.95;;;;;;;;;;4880345;29;20040;-77
2022/10/10 02:08:22;;;;;;;15.43;10.95;;;;;;;;;;4885667;29;20108;-77
2022/10/10 02:10:50;;;;;;;17.90;10.77;;;;;;;;;;4879667;29;20025;-75
2022/10/10 02:13:17;;;;;;;15.60;10.55;;;;;;;;;;4891885;29;20029;-77
2022/10/10 02:15:45;;;;;;;15.73;11.05;;;;;;;;;;4880595;29;20033;-75
2022/10/10 02:18:12;;;;;;;16.60;11.05;;;;;;;;;;4880086;29;20390;-76
2022/10/10 02:20:39;;;;;;;14.20;10.55;;;;;;;;;;4882391;29;20049;-77
2022/10/10 02:23:06;;;;;;;18.33;11.35;;;;;;;;;;4879659;29;20033;-77
2022/10/10 02:25:36;;;;;;;18.77;11.00;;;;;;;;;;4879321;29;20025;-76
2022/10/10 02:28:10;;;;;;;17.92;10.90;;;;;;;;;;4887756;29;20040;-76
2022/10/10 02:30:38;;;;;;;18.33;10.80;;;;;;;;;;4885438;29;20056;-78
2022/10/10 02:33:05;;;;;;;16.70;10.43;;;;;;;;;;4878551;29;20759;-76
2022/10/10 02:35:34;;;;;;;15.40;10.25;;;;;;;;;;4880290;29;20053;-77
2022/10/10 02:38:01;;;;;;;17.05;10.73;;;;;;;;;;4879321;29;20025;-76
2022/10/10 02:40:29;;;;;;;19.08;10.73;;;;;;;;;;4881109;29;20087;-76
2022/10/10 02:42:56;;;;;;;13.93;10.05;;;;;;;;;;4892282;29;20036;-76
2022/10/10 02:45:22;;;;;;;12.65;9.73;;;;;;;;;;4879228;29;20025;-76
2022/10/10 02:47:53;;;;;;;19.60;10.38;;;;;;;;;;4879071;29;20116;-76
2022/10/10 02:50:19;;;;;;;13.55;9.45;;;;;;;;;;4885270;29;20032;-77
2022/10/10 02:52:45;;;;;;;14.13;9.40;;;;;;;;;;4890331;29;20036;-76
2022/10/10 02:55:11;;;;;;;15.40;9.57;;;;;;;;;;4884364;29;20036;-76
2022/10/10 02:57:37;;;;;;;14.27;9.57;;;;;;;;;;4882517;29;20061;-76
2022/10/10 03:00:04;;;;;;;12.45;9.25;;;;;;;;;;4878686;29;20071;-76
2022/10/10 03:02:30;;;;;;;16.25;9.85;;;;;;;;;;4880724;29;20044;-76
2022/10/10 03:04:57;;;;;;;15.52;9.27;;;;;;;;;;4882891;29;20073;-76
2022/10/10 03:07:23;;;;;;;14.60;8.73;;;;;;;;;;4878398;29;20025;-76
2022/10/10 03:09:49;;;;;;;14.68;8.40;;;;;;;;;;4890198;29;20040;-76
2022/10/10 03:12:16;;;;;;;11.43;8.07;;;;;;;;;;4881988;29;20032;-77
2022/10/10 03:14:42;;;;;;;11.73;8.13;;;;;;;;;;4888872;29;20037;-77
2022/10/10 03:17:08;;;;;;;12.38;7.78;;;;;;;;;;4883430;29;20079;-76
2022/10/10 03:19:34;;;;;;;14.85;8.20;;;;;;;;;;4889779;29;20438;-76
2022/10/10 03:22:00;;;;;;;11.38;7.22;;;;;;;;;;4895573;29;20060;-77
2022/10/10 03:24:26;;;;;;;10.90;7.25;;;;;;;;;;4885914;29;20082;-76
2022/10/10 03:26:52;;;;;;;10.55;7.47;;;;;;;;;;4884522;29;20514;-77
2022/10/10 03:29:18;;;;;;;12.40;7.18;;;;;;;;;;4891961;29;20049;-76
2022/10/10 03:31:44;;;;;;;9.93;7.60;;;;;;;;;;4893712;29;20044;-76
2022/10/10 03:34:10;;;;;;;13.40;7.80;;;;;;;;;;4896595;29;20055;-76
2022/10/10 03:36:36;;;;;;;10.13;7.35;;;;;;;;;;4882754;29;20021;-76
2022/10/10 03:39:03;;;;;;;10.50;7.53;;;;;;;;;;4888824;29;20028;-76
2022/10/10 03:41:29;;;;;;;14.68;7.45;;;;;;;;;;4883512;29;20029;-76
2022/10/10 03:43:55;;;;;;;11.55;7.90;;;;;;;;;;4883060;29;20483;-76
2022/10/10 03:46:21;;;;;;;16.30;7.75;;;;;;;;;;4895443;29;20033;-76
2022/10/10 03:48:47;;;;;;;13.77;7.22;;;;;;;;;;4881860;29;20037;-76
2022/10/10 03:51:14;;;;;;;13.93;7.90;;;;;;;;;;4882139;29;20092;-76
2022/10/10 03:53:40;;;;;;;11.15;7.22;;;;;;;;;;4882086;29;20048;-76
2022/10/10 03:56:06;;;;;;;14.18;7.88;;;;;;;;;;4891979;29;20028;-75
2022/10/10 03:58:32;;;;;;;11.35;7.35;;;;;;;;;;4887074;29;20032;-77
2022/10/10 04:00:59;;;;;;;12.18;6.97;;;;;;;;;;4889434;29;20040;-76
2022/10/10 04:03:25;;;;;;;12.35;7.10;;;;;;;;;;4883710;29;20051;-75
2022/10/10 04:05:52;;;;;;;10.18;7.38;;;;;;;;;;4887107;29;20509;-75
2022/10/10 04:08:18;;;;;;;11.68;7.30;;;;;;;;;;4893413;29;20064;-76
2022/10/10 04:10:47;;;;;;;9.45;6.95;;;;;;;;;;4886293;29;20037;-77
2022/10/10 04:13:13;;;;;;;10.98;6.97;;;;;;;;;;4886633;29;20041;-76
2022/10/10 04:15:39;;;;;;;14.82;7.25;;;;;;;;;;4890611;29;20068;-76
2022/10/10 04:18:05;;;;;;;9.30;7.25;;;;;;;;;;4884940;29;20020;-75
2022/10/10 04:20:31;;;;;;;10.88;7.43;;;;;;;;;;4893919;29;20033;-75
2022/10/10 04:22:57;;;;;;;12.63;7.47;;;;;;;;;;4886392;29;20017;-76
2022/10/10 04:25:24;;;;;;;15.38;7.15;;;;;;;;;;4886752;29;20029;-75
2022/10/10 04:27:50;;;;;;;13.95;7.28;;;;;;;;;;4892116;29;20035;-76
2022/10/10 04:30:16;;;;;;;12.60;6.72;;;;;;;;;;4881647;29;20061;-76
2022/10/10 04:32:42;;;;;;;14.48;7.70;;;;;;;;;;4883539;29;20078;-75
2022/10/10 04:35:08;;;;;;;10.00;7.07;;;;;;;;;;4884144;29;20056;-75
2022/10/10 04:37:34;;;;;;;10.38;6.60;;;;;;;;;;4887030;29;20025;-75
2022/10/10 04:40:00;;;;;;;9.23;6.15;;;;;;;;;;4893979;29;20032;-75
2022/10/10 04:42:26;;;;;;;8.82;6.05;;;;;;;;;;4881485;29;20052;-75
2022/10/10 04:44:52;;;;;;;10.55;6.18;;;;;;;;;;4881317;29;20017;-75
2022/10/10 04:47:18;;;;;;;9.32;6.28;;;;;;;;;;4882598;29;20161;-75
2022/10/10 04:49:45;;;;;;;15.40;6.80;;;;;;;;;;4881026;29;20037;-76
2022/10/10 04:52:11;;;;;;;11.35;6.10;;;;;;;;;;4881074;29;20113;-75
2022/10/10 04:54:37;;;;;;;12.52;6.68;;;;;;;;;;4880796;29;20040;-75
2022/10/10 04:57:03;;;;;;;12.60;6.65;;;;;;;;;;4894144;29;20480;-75
2022/10/10 04:59:30;;;;;;;11.35;6.75;;;;;;;;;;4881153;29;20041;-75
2022/10/10 05:01:56;;;;;;;13.45;8.15;;;;;;;;;;4881041;29;20108;-75
2022/10/10 05:04:22;;;;;;;12.18;7.40;;;;;;;;;;4888170;29;20394;-76
2022/10/10 05:06:51;;;;;;;11.07;6.38;;;;;;;;;;4894824;29;20032;-77
2022/10/10 05:09:17;;;;;;;16.80;7.28;;;;;;;;;;4909796;29;20036;-76
2022/10/10 05:11:43;;;;;;;11.32;7.07;;;;;;;;;;4894384;29;20036;-76
2022/10/10 05:14:09;;;;;;;13.20;7.65;;;;;;;;;;4882177;29;20029;-76
2022/10/10 05:16:35;;;;;;;10.63;7.03;;;;;;;;;;4884058;29;20032;-79
2022/10/10 05:19:01;;;;;;;14.52;7.78;;;;;;;;;;4883212;29;20086;-75
2022/10/10 05:21:27;;;;;;;11.52;7.57;;;;;;;;;;4888265;29;20036;-76
2022/10/10 05:23:54;;;;;;;18.58;8.15;;;;;;;;;;4886298;29;20034;-76
2022/10/10 05:26:20;;;;;;;20.23;8.30;;;;;;;;;;4887586;29;20096;-76
2022/10/10 05:28:47;;;;;;;14.57;7.63;;;;;;;;;;4881014;29;20045;-76
2022/10/10 05:31:13;;;;;;;13.70;7.82;;;;;;;;;;4881557;29;20024;-76
2022/10/10 05:33:39;;;;;;;11.50;8.05;;;;;;;;;;4888347;29;20024;-76
2022/10/10 05:36:06;;;;;;;14.13;8.20;;;;;;;;;;4896327;29;20045;-75
2022/10/10 05:38:33;;;;;;;14.05;7.80;;;;;;;;;;4898039;29;20040;-75
2022/10/10 05:40:59;;;;;;;15.10;7.22;;;;;;;;;;4882035;29;20028;-76
2022/10/10 05:43:25;;;;;;;11.38;6.93;;;;;;;;;;4884521;29;20442;-77
2022/10/10 05:45:51;;;;;;;12.82;7.50;;;;;;;;;;4888201;29;20028;-76
2022/10/10 05:48:17;;;;;;;9.57;7.05;;;;;;;;;;4882289;29;20055;-75
2022/10/10 05:50:54;;;;;;;11.45;6.90;;;;;;;;;;4883610;29;20037;-76
2022/10/10 05:53:21;;;;;;;11.63;6.43;;;;;;;;;;4887753;29;20032;-78
2022/10/10 05:55:47;;;;;;;13.60;6.40;;;;;;;;;;4885183;29;20108;-75
2022/10/10 05:58:14;;;;;;;13.45;7.45;;;;;;;;;;4885057;29;20428;-75
2022/10/10 06:00:43;;;;;;;13.55;7.25;;;;;;;;;;4894488;29;20033;-76
2022/10/10 06:03:12;;;;;;;9.95;6.97;;;;;;;;;;4888124;29;20024;-76
2022/10/10 06:05:39;;;;;;;12.80;7.18;;;;;;;;;;4889028;29;20047;-76
2022/10/10 06:08:05;;;;;;;15.80;7.20;;;;;;;;;;4893060;29;20494;-76
2022/10/10 06:10:43;;;;;;;12.85;6.70;;;;;;;;;;4885725;29;20574;-78
2022/10/10 06:13:10;;;;;;;15.50;7.05;;;;;;;;;;4884092;29;20028;-75
2022/10/10 06:15:36;;;;;;;8.60;6.38;;;;;;;;;;4897673;29;20032;-75
2022/10/10 06:18:03;;;;;;;11.30;6.40;;;;;;;;;;4881854;29;20021;-75
2022/10/10 06:20:29;;;;;;;9.35;6.30;;;;;;;;;;4891517;29;20487;-76
2022/10/10 06:22:55;;;;;;;10.55;6.55;;;;;;;;;;4889696;29;20033;-77
2022/10/10 06:25:21;;;;;;;10.98;6.47;;;;;;;;;;4884498;29;20035;-76
2022/10/10 06:27:47;;;;;;;9.73;6.10;;;;;;;;;;4882291;29;20033;-76
2022/10/10 06:30:13;;;;;;;14.95;6.97;;;;;;;;;;4888610;29;20116;-78
2022/10/10 06:32:39;;;;;;;11.02;6.40;;;;;;;;;;4893169;29;20033;-76
2022/10/10 06:35:21;;;;;;;11.88;6.15;;;;;;;;;;4894729;29;20100;-78
2022/10/10 06:37:47;;;;;;;12.93;6.40;;;;;;;;;;4987285;23;20060;-78
2022/10/10 06:40:13;;;;;;;17.33;6.78;;;;;;;;;;4885851;29;20080;-79
2022/10/10 06:42:40;;;;;;;10.20;6.40;;;;;;;;;;4884281;29;20031;-78
2022/10/10 06:45:11;;;;;;;24.75;6.60;;;;;;;;;;4904196;29;20084;-79
2022/10/10 06:47:38;;;;;;;8.57;6.10;;;;;;;;;;4905951;29;20029;-76
2022/10/10 06:50:10;;;;;;;11.20;5.47;;;;;;;;;;4889856;29;20495;-79
2022/10/10 06:52:40;;;;;;;9.57;6.22;;;;;;;;;;4893504;29;20013;-80
2022/10/10 06:55:19;;;;;;;14.60;6.43;;;;;;;;;;4915121;29;20115;-78
2022/10/10 06:57:46;;;;;;;11.63;6.05;;;;;;;;;;4911522;29;20039;-79
2022/10/10 07:00:13;;;;;;;11.95;5.97;;;;;;;;;;4913828;29;20036;-79
2022/10/10 07:02:46;;;;;;;8.93;6.03;;;;;;;;;;4900256;29;20044;-80
2022/10/10 07:05:15;;;;;;;10.95;6.63;;;;;;;;;;4908898;29;20036;-80
2022/10/10 07:07:56;;;;;;;8.38;5.70;;;;;;;;;;4894930;29;20020;-81
2022/10/10 07:11:06;;;;;;;9.68;6.07;;;;;;;;;;4901936;29;20169;-80
2022/10/10 07:24:15;;;;;;;10.13;5.40;;;;;;;;;;4918953;23;19946;-76
2022/10/10 07:26:42;;;;;;;9.02;5.50;;;;;;;;;;4905702;29;20033;-76
2022/10/10 07:35:53;;;;;;;8.95;5.90;;;;;;;;;;4846748;29;20021;-82
2022/10/10 07:42:21;;;;;;;7.72;5.40;;;;;;;;;;4828156;29;20063;-83
2022/10/10 07:45:43;;;;;;;12.02;5.97;;;;;;;;;;4811901;29;20011;-83
2022/10/10 07:51:57;;;;;;;17.95;6.45;;;;;;;;;;4773129;30;20048;-80
2022/10/10 07:54:34;;;;;;;12.57;5.90;;;;;;;;;;4756814;30;20114;-80
2022/10/10 07:57:01;;;;;;;12.10;6.20;;;;;;;;;;4773506;29;20037;-78
2022/10/10 07:59:28;;;;;;;9.38;6.53;;;;;;;;;;4782526;29;20032;-80
2022/10/10 08:01:55;;;;;;;13.20;7.43;;;;;;;;;;4772263;30;20028;-78
2022/10/10 08:04:28;;;;;;;10.15;6.00;;;;;;;;;;4759182;29;20060;-80
2022/10/10 08:07:15;;;;;;;12.52;6.75;;;;;;;;;;4787676;29;20030;-80
2022/10/10 08:10:01;;;;;;;10.15;6.45;;;;;;;;;;4834393;29;20049;-81
2022/10/10 08:12:52;;;;;;;11.85;6.57;;;;;;;;;;4829949;29;20026;-81
2022/10/10 08:15:31;;;;;;;11.13;6.85;;;;;;;;;;4811589;29;20043;-81
2022/10/10 08:21:14;;;;;;;11.38;6.55;;;;;;;;;;4848446;29;20145;-81
2022/10/10 08:27:40;;;;;;;13.60;7.20;;;;;;;;;;4873381;29;20036;-82
2022/10/10 08:30:52;;;;;;;15.55;7.13;;;;;;;;;;4829517;29;20047;-81
2022/10/10 08:33:18;;;;;;;15.10;6.35;;;;;;;;;;4813076;29;20035;-81
2022/10/10 08:35:47;;;;;;;9.30;6.68;;;;;;;;;;4816734;29;20061;-81
2022/10/10 08:38:37;;;;;;;10.60;7.10;;;;;;;;;;4812732;29;20043;-80
2022/10/10 08:41:31;;;;;;;10.43;6.97;;;;;;;;;;4791943;30;20071;-80
2022/10/10 08:44:03;;;;;;;9.63;6.55;;;;;;;;;;4754134;30;20077;-81
2022/10/10 08:46:40;;;;;;;13.52;7.72;;;;;;;;;;4790195;30;20039;-79
2022/10/10 08:49:30;;;;;;;13.77;9.05;;;;;;;;;;4777991;30;20119;-79
2022/10/10 08:51:59;;;;;;;11.88;7.68;;;;;;;;;;4771497;30;20032;-79
2022/10/10 08:54:26;;;;;;;12.32;8.30;;;;;;;;;;4781049;29;20044;-80
2022/10/10 08:56:59;;;;;;;19.02;8.75;;;;;;;;;;4775039;30;20074;-80
2022/10/10 08:59:35;;;;;;;12.80;8.87;;;;;;;;;;4788025;30;20054;-79
2022/10/10 09:02:33;;;;;;;13.77;8.40;;;;;;;;;;4779508;30;20543;-80
2022/10/10 09:05:22;;;;;;;17.15;10.57;;;;;;;;;;4788744;30;20065;-81
2022/10/10 09:08:21;;;;;;;18.35;10.73;;;;;;;;;;4790886;29;20028;-84
2022/10/10 09:28:43;;;;;;;22.65;16.45;;;;;;;;;;4923461;29;20047;-79
2022/10/10 09:35:13;;;;;;;24.30;19.15;;;;;;;;;;4925249;28;20038;-82
2022/10/10 09:37:43;;;;;;;23.38;18.58;;;;;;;;;;4876904;29;20026;-80
2022/10/10 09:40:16;;;;;;;31.73;21.02;;;;;;;;;;4866758;29;20050;-78
2022/10/10 09:42:58;;;;;;;24.40;17.80;;;;;;;;;;4856688;29;20041;-77
2022/10/10 09:45:35;;;;;;;25.75;17.42;;;;;;;;;;4859528;29;20045;-78
2022/10/10 09:48:07;;;;;;;23.75;18.70;;;;;;;;;;4858451;29;20161;-78
2022/10/10 09:50:33;;;;;;;23.08;19.13;;;;;;;;;;4874492;29;20078;-78
2022/10/10 09:52:59;;;;;;;29.60;18.77;;;;;;;;;;4872985;29;20089;-78
2022/10/10 09:55:40;;;;;;;28.92;18.83;;;;;;;;;;4890422;29;20051;-78
2022/10/10 09:58:25;;;;;;;31.05;19.77;;;;;;;;;;4893451;29;20043;-78
2022/10/10 10:00:52;;;;;;;31.00;22.10;;;;;;;;;;4884068;29;20029;-78
2022/10/10 10:03:19;;;;;;;30.38;23.48;;;;;;;;;;4906029;29;20486;-80
2022/10/10 10:05:57;;;;;;;32.03;24.88;;;;;;;;;;4898021;29;20118;-79
2022/10/10 10:08:28;;;;;;;33.17;25.17;;;;;;;;;;4912186;29;20096;-79
2022/10/10 10:10:57;;;;;;;33.63;26.85;;;;;;;;;;4887152;29;20036;-78
2022/10/10 10:13:27;;;;;;;35.05;26.80;;;;;;;;;;4891660;29;20031;-78
2022/10/10 10:16:06;;;;;;;34.72;29.70;;;;;;;;;;4895514;29;20032;-80
2022/10/10 10:18:40;;;;;;;38.60;31.08;;;;;;;;;;4892915;29;20017;-78
2022/10/10 10:21:06;;;;;;;;;;;;;;;;;;4885950;29;20415;-79
2022/10/10 10:23:36;;;;;;;34.55;29.27;;;;;;;;;;4874571;29;19912;-79
2022/10/10 10:26:05;;;;;;;37.58;29.98;;;;;;;;;;4901260;29;20039;-79
2022/10/10 10:28:39;;;;;;;39.83;28.85;;;;;;;;;;4891829;29;20052;-78
2022/10/10 10:31:06;;;;;;;41.33;31.02;;;;;;;;;;4891830;29;20060;-79
2022/10/10 10:33:35;;;;;;;42.13;34.30;;;;;;;;;;4891922;29;20071;-78
2022/10/10 10:36:41;;;;;;;45.33;35.97;;;;;;;;;;4893499;29;20037;-80
2022/10/10 10:39:26;;;;;;;43.97;37.45;;;;;;;;;;4892076;29;20029;-78
2022/10/10 10:42:11;;;;;;;48.50;40.45;;;;;;;;;;4892011;29;20037;-79
2022/10/10 10:44:47;;;;;;;49.70;42.88;;;;;;;;;;4898739;29;20045;-78
2022/10/10 10:47:26;;;;;;;57.92;45.13;;;;;;;;;;4875835;29;20045;-79
2022/10/10 10:50:31;;;;;;;54.55;44.92;;;;;;;;;;4874451;29;20059;-78
2022/10/10 10:53:07;;;;;;;50.53;41.30;;;;;;;;;;4835938;29;20038;-79
2022/10/10 10:55:53;;;;;;;46.25;38.63;;;;;;;;;;4844362;29;20036;-80
2022/10/10 10:58:27;;;;;;;48.22;39.90;;;;;;;;;;4853005;29;20034;-81
2022/10/10 11:01:14;;;;;;;46.53;40.40;;;;;;;;;;4843277;29;20066;-78
2022/10/10 11:03:40;;;;;;;56.50;42.83;;;;;;;;;;4840239;29;20524;-79
2022/10/10 11:06:29;;;;;;;51.25;40.35;;;;;;;;;;4839274;29;20065;-79
2022/10/10 11:09:15;;;;;;;49.75;41.55;;;;;;;;;;4822468;29;20106;-80
2022/10/10 11:11:44;;;;;;;53.95;41.00;;;;;;;;;;4835340;29;20038;-79
2022/10/10 11:14:51;;;;;;;50.55;39.65;;;;;;;;;;4820529;29;20548;-81
2022/10/10 11:17:36;;;;;;;44.03;35.33;;;;;;;;;;4840070;29;20038;-80
2022/10/10 11:20:18;;;;;;;41.07;33.77;;;;;;;;;;4836949;29;20043;-80
2022/10/10 11:22:50;;;;;;;42.60;34.05;;;;;;;;;;4848844;29;20304;-79
2022/10/10 11:25:36;;;;;;;41.80;35.28;;;;;;;;;;4911708;29;20071;-80
2022/10/10 11:28:15;;;;;;;44.40;35.58;;;;;;;;;;4908153;29;20032;-80
2022/10/10 11:30:53;;;;;;;42.88;32.33;;;;;;;;;;4892192;29;20075;-80
2022/10/10 11:33:29;;;;;;;32.22;28.73;;;;;;;;;;4874230;29;20029;-78
2022/10/10 11:36:02;;;;;;;32.72;27.88;;;;;;;;;;4891095;29;20056;-80
2022/10/10 11:39:07;;;;;;;36.70;28.00;;;;;;;;;;4896579;29;20120;-80
2022/10/10 11:41:46;;;;;;;39.47;30.23;;;;;;;;;;4913227;29;20017;-80
2022/10/10 11:44:18;;;;;;;37.95;30.83;;;;;;;;;;4889700;29;20064;-80
2022/10/10 11:47:06;;;;;;;39.45;30.83;;;;;;;;;;4930397;29;20033;-81
2022/10/10 11:50:00;;;;;;;33.75;29.75;;;;;;;;;;4900727;29;20486;-80
2022/10/10 11:52:38;;;;;;;34.97;31.30;;;;;;;;;;4881317;29;20038;-79
2022/10/10 11:55:35;;;;;;;36.78;29.20;;;;;;;;;;4865548;29;20041;-81
2022/10/10 11:58:24;;;;;;;36.22;29.75;;;;;;;;;;4827023;29;20039;-83
2022/10/10 12:01:19;;;;;;;38.20;26.98;;;;;;;;;;4806564;29;20042;-78
2022/10/10 12:04:14;;;;;;;30.75;25.42;;;;;;;;;;4808754;29;20091;-82
2022/10/10 12:06:55;;;;;;;26.67;23.80;;;;;;;;;;4761113;30;20040;-78
2022/10/10 12:12:07;;;;;;;28.15;22.35;;;;;;;;;;5572606;23;20056;-78
2022/10/10 12:14:37;;;;;;;27.10;21.63;;;;;;;;;;4912096;29;20036;-79
2022/10/10 12:17:13;;;;;;;27.00;21.85;;;;;;;;;;4901140;29;20036;-80
2022/10/10 12:25:36;;;;;;;26.88;20.35;;;;;;;;;;4832228;23;20065;-81
2022/10/10 12:28:49;;;;;;;23.77;19.10;;;;;;;;;;4977154;23;20057;-84
2022/10/10 12:31:45;;;;;;;22.48;19.02;;;;;;;;;;4819946;29;20031;-82
2022/10/10 12:34:46;;;;;;;24.55;19.67;;;;;;;;;;4814534;29;20041;-78
2022/10/10 12:37:25;;;;;;;23.40;19.42;;;;;;;;;;4821179;29;20047;-85
2022/10/10 12:45:54;;;;;;;21.30;18.33;;;;;;;;;;5321261;23;20076;-84
2022/10/10 12:59:36;;;;;;;25.52;20.33;;;;;;;;;;5567851;23;20448;-78
2022/10/10 13:02:25;;;;;;;31.95;21.38;;;;;;;;;;4904468;29;20065;-79
2022/10/10 13:04:53;;;;;;;27.52;20.95;;;;;;;;;;4901347;29;20060;-79
2022/10/10 13:07:45;;;;;;;25.02;21.55;;;;;;;;;;4887232;29;20028;-84
2022/10/10 13:10:43;;;;;;;31.48;23.10;;;;;;;;;;4900393;29;20052;-78
2022/10/10 13:13:15;;;;;;;28.35;22.35;;;;;;;;;;4905704;29;20029;-78
2022/10/10 13:45:37;;;;;;;22.00;17.23;;;;;;;;;;5039814;23;20036;-84
2022/10/10 14:41:04;;;;;;;23.27;15.95;;;;;;;;;;5061743;23;20032;-85
2022/10/10 15:30:25;;;;;;;48.25;26.58;;;;;;;;;;5435433;23;20025;-84
2022/10/10 15:52:02;;;;;;;26.58;16.90;;;;;;;;;;5001766;23;20048;-84
2022/10/10 16:00:14;;;;;;;24.40;17.77;;;;;;;;;;5213933;23;20044;-85
2022/10/10 16:03:12;;;;;;;23.08;16.38;;;;;;;;;;4919463;29;20020;-82
2022/10/10 16:14:45;;;;;;;34.97;20.35;;;;;;;;;;5365120;23;20073;-82
2022/10/10 16:17:42;;;;;;;30.20;21.20;;;;;;;;;;4898484;29;20093;-83
2022/10/10 16:20:49;;;;;;;27.85;16.05;;;;;;;;;;4839431;29;20091;-83
2022/10/10 16:35:47;;;;;;;18.13;12.43;;;;;;;;;;5289710;23;20088;-85
2022/10/10 16:38:30;;;;;;;24.42;12.35;;;;;;;;;;4944670;28;20047;-84
2022/10/10 16:41:23;;;;;;;18.35;11.82;;;;;;;;;;5285972;23;20048;-79
2022/10/10 16:46:44;;;;;;;26.17;10.98;;;;;;;;;;5050501;23;20060;-78
2022/10/10 16:49:43;;;;;;;16.38;10.63;;;;;;;;;;5120256;23;20125;-83
2022/10/10 17:24:56;;;;;;;18.15;9.40;;;;;;;;;;4891322;29;20056;-81
2022/10/10 17:51:13;;;;;;;20.20;10.23;;;;;;;;;;5134303;23;20044;-83
2022/10/10 18:28:07;;;;;;;14.90;9.77;;;;;;;;;;3457965;23;20331;-77
2022/10/10 18:30:38;;;;;;;18.05;9.63;;;;;;;;;;4920377;29;20049;-83
2022/10/10 18:33:05;;;;;;;15.73;9.32;;;;;;;;;;4875238;29;20027;-81
2022/10/10 18:36:21;;;;;;;19.73;9.77;;;;;;;;;;4919421;29;20025;-82
2022/10/10 18:42:41;;;;;;;14.98;9.10;;;;;;;;;;4793514;29;20409;-82
2022/10/10 18:48:43;;;;;;;16.23;9.07;;;;;;;;;;4792373;29;20031;-82
2022/10/10 18:57:28;;;;;;;14.52;9.40;;;;;;;;;;4781352;29;20035;-82
2022/10/10 19:00:54;;;;;;;15.20;9.20;;;;;;;;;;4793665;29;20032;-82
2022/10/10 21:04:22;;;;;;;20.00;9.80;;;;;;;;;;5126355;23;20093;-82
2022/10/10 21:07:27;;;;;;;18.88;10.18;;;;;;;;;;4904878;29;20093;-82
2022/10/10 21:09:55;;;;;;;16.38;9.52;;;;;;;;;;4902631;29;20052;-83
2022/10/10 21:13:02;;;;;;;15.02;9.20;;;;;;;;;;4849588;29;20043;-84
2022/10/10 21:24:40;;;;;;;16.60;10.82;;;;;;;;;;4742139;30;20053;-84
2022/10/10 21:28:10;;;;;;;13.43;10.23;;;;;;;;;;4742535;30;20017;-84
2022/10/10 21:31:27;;;;;;;17.65;11.02;;;;;;;;;;4739119;30;20029;-82
2022/10/10 22:15:32;;;;;;;22.50;12.50;;;;;;;;;;4860253;29;20040;-82
2022/10/10 22:18:47;;;;;;;23.63;13.70;;;;;;;;;;4866824;29;20025;-83
2022/10/10 22:21:56;;;;;;;17.98;13.02;;;;;;;;;;4812167;29;20047;-84
2022/10/10 22:25:16;;;;;;;18.83;12.98;;;;;;;;;;4765975;29;20029;-82
2022/10/10 22:28:15;;;;;;;20.08;13.65;;;;;;;;;;4728683;30;20049;-85
2022/10/10 22:31:16;;;;;;;22.20;13.32;;;;;;;;;;4744447;30;20069;-84
2022/10/10 22:34:20;;;;;;;20.73;14.05;;;;;;;;;;4723203;30;20037;-83
2022/10/10 22:48:37;;;;;;;21.05;12.70;;;;;;;;;;5362684;23;20048;-84
2022/10/10 23:13:22;;;;;;;26.00;15.68;;;;;;;;;;5019861;23;20056;-81
2022/10/10 23:16:12;;;;;;;21.73;14.37;;;;;;;;;;4872652;29;20058;-80
2022/10/10 23:19:06;;;;;;;24.83;15.48;;;;;;;;;;4810791;29;20011;-82
2022/10/10 23:21:39;;;;;;;23.42;15.02;;;;;;;;;;4797614;29;20047;-81
2022/10/10 23:24:08;;;;;;;19.77;13.82;;;;;;;;;;4792985;29;20024;-81
2022/10/10 23:27:02;;;;;;;23.25;13.82;;;;;;;;;;4791608;29;20044;-82
2022/10/10 23:30:12;;;;;;;20.85;14.88;;;;;;;;;;4754677;30;20029;-81
2022/10/10 23:32:57;;;;;;;24.58;13.55;;;;;;;;;;4739692;30;20097;-82
2022/10/10 23:35:59;;;;;;;19.35;14.68;;;;;;;;;;4705544;30;20064;-81
2022/10/10 23:39:16;;;;;;;20.83;14.40;;;;;;;;;;4705171;30;20029;-81
2022/10/10 23:41:53;;;;;;;25.08;15.50;;;;;;;;;;4712792;30;20045;-81
2022/10/10 23:45:09;;;;;;;21.92;16.08;;;;;;;;;;4722779;30;20026;-82
2022/10/10 23:48:13;;;;;;;25.90;16.00;;;;;;;;;;4687854;30;20047;-82
2022/10/10 23:51:13;;;;;;;20.40;15.43;;;;;;;;;;4656890;30;20054;-82
2022/10/10 23:54:15;;;;;;;28.92;16.27;;;;;;;;;;4674102;30;20109;-81
2022/10/10 23:57:38;;;;;;;23.35;15.98;;;;;;;;;;4709257;30;20014;-81
